• Join FlightAware (Why Join?)
  • Login
  • US Flag 
08:28PM EST


 

Airport Tracker/Info


-or-


 

Live Flight TrackerFlight Track Log ✈ AAY855 ✈ 02-Jul-2014 ✈ KSBN - KPIE

Flight Track Log - Related Links

Times and Time Zones

All times are in EDT time to prevent confusion due to time zone crossing. See the AAY855 flight status page for this flight to view local times or setup timezone preferences in your user account.

Time Position Orientation Groundspeed Altitude Reporting Facility
EDT Latitude Longitude Course Direction KTS MPH feet Rate Location/Type
08:00PM 41.6497 -86.3342 133° Southeast 213 245 4,100  Level Chicago Center
08:01PM 41.5878 -86.2825 148° Southeast 258 297 6,500 2,544 Climbing Chicago Center
08:02PM 41.5147 -86.2442 159° South 278 320 9,400 2,190 Climbing Chicago Center
08:03PM 41.4350 -86.2100 162° South 300 345 11,100 2,024 Climbing Chicago Center
08:06PM 41.3440 -85.7485 133° Southeast  Level FlightAware Approximate
08:08PM 40.9560 -85.9919 161° South 405 466 20,800  Level FlightAware ADS-B
08:10PM 40.8076 -85.9253 161° South 415 478 23,500 1,659 Climbing FlightAware ADS-B
08:10PM 40.7355 -85.8931 161° South 418 481 24,200 1,385 Climbing FlightAware ADS-B
08:11PM 40.6496 -85.8548 161° South 424 488 25,300 1,400 Climbing FlightAware ADS-B
08:12PM 40.5660 -85.8177 161° South 432 497 26,300 1,280 Climbing FlightAware ADS-B
08:12PM 40.5163 -85.7957 161° South 436 502 26,900 560 Climbing FlightAware ADS-B
08:13PM 40.4230 -85.7546 161° South 437 503 27,000 81 Climbing FlightAware ADS-B
08:13PM 40.3656 -85.7294 162° South 440 506 27,000 740 Level FlightAware ADS-B
08:14PM 40.2823 -85.6928 161° South 442 509 27,900 1,091 Climbing FlightAware ADS-B
08:15PM 40.2169 -85.6641 162° South 448 516 28,400 1,077 Climbing FlightAware ADS-B
08:15PM 40.1279 -85.6252 161° South 453 521 29,300 1,116 Climbing FlightAware ADS-B
08:16PM 40.0440 -85.5887 162° South 457 526 30,000 1,280 Climbing FlightAware ADS-B
08:17PM 39.9794 -85.5606 162° South 454 522 30,900 1,462 Climbing FlightAware ADS-B
08:17PM 39.8885 -85.5212 162° South 451 519 31,900 1,229 Climbing FlightAware ADS-B
08:18PM 39.8145 -85.4892 162° South 453 521 32,600 1,059 Climbing FlightAware ADS-B
08:22PM 39.3314 -85.2823 162° South 438 504 37,000 657 Climbing FlightAware ADS-B
08:25PM 39.0309 -85.1552 162° South 443 510 37,000  Level FlightAware ADS-B
08:26PM 39.0105 -85.1465 162° South 444 511 37,000  Level FlightAware ADS-B
08:26PM 38.8964 -85.0984 162° South 447 514 37,000  Level FlightAware ADS-B
08:27PM 38.8082 -85.0614 162° South 448 516 37,000  Level FlightAware ADS-B
08:27PM 38.7377 -85.0320 162° South 450 518 37,000  Level FlightAware ADS-B
08:28PM 38.6699 -85.0036 162° South 451 519 37,000 63 Level FlightAware ADS-B (EKHG)
08:29PM 38.5485 -84.9530 162° South 449 517 37,100  Climbing FlightAware ADS-B (EKHG)
08:30PM 38.4287 -84.9033 162° South 446 513 37,000 -49 Descending FlightAware ADS-B (EKHG)
08:31PM 38.3096 -84.8542 162° South 444 511 37,000  Level FlightAware ADS-B (EKHG)
08:32PM 38.1932 -84.8062 162° South 443 510 37,000  Level FlightAware ADS-B (EKHG)
08:33PM 38.0842 -84.7615 162° South 444 511 37,000  Level FlightAware ADS-B (EKHG)
08:34PM 38.0063 -84.7295 162° South 445 512 37,000  Level FlightAware ADS-B (EKHG)
08:35PM 37.8414 -84.6623 162° South 443 510 37,000  Level FlightAware ADS-B (EKHG)
08:36PM 37.7378 -84.6201 162° South 440 506 37,000  Level FlightAware ADS-B (EKHG)
08:37PM 37.6086 -84.5677 162° South 435 501 37,000  Level FlightAware ADS-B (EKHG)
08:38PM 37.4949 -84.5216 162° South 436 502 37,000  Level FlightAware ADS-B (EKHG)
08:39PM 37.3785 -84.4749 162° South 439 505 37,000  Level FlightAware ADS-B (EKHG)
08:43PM 36.9119 -84.2886 162° South 436 502 37,000  Level FlightAware ADS-B (EKHG)
08:44PM 36.7966 -84.2429 162° South 439 505 37,000  Level FlightAware ADS-B (EKHG)
08:45PM 36.7114 -84.2086 162° South 439 505 37,000  Level Indianapolis Center
08:46PM 36.5936 -84.1625 163° South 439 505 37,000  Level Indianapolis Center
08:47PM 36.4753 -84.1164 163° South 440 506 37,000  Level Indianapolis Center
08:48PM 36.3572 -84.0703 163° South 440 506 37,000  Level Indianapolis Center
08:49PM 36.2406 -84.0236 162° South 440 506 37,000  Level Indianapolis Center
08:50PM 36.1167 -83.9769 163° South 435 501 37,000  Level Atlanta Center
08:51PM 35.9978 -83.9336 164° South 440 506 37,000  Level Atlanta Center
08:57PM 35.3155 -84.0372 191° South 424 488 37,000  Level FlightAware ADS-B (KDZJ)
08:57PM 35.2331 -84.0569 191° South 424 488 37,000  Level FlightAware ADS-B (KDZJ)
08:58PM 35.1714 -84.0717 191° South 426 490 37,000  Level FlightAware ADS-B (KDZJ)
08:59PM 35.0832 -84.0930 191° South 426 490 37,000  Level FlightAware ADS-B (KDZJ)
08:59PM 35.0011 -84.1126 191° South 427 491 37,000  Level FlightAware ADS-B (KDZJ)
09:00PM 34.9298 -84.1296 191° South 428 493 37,000 76 Level FlightAware ADS-B (KDZJ)
09:01PM 34.8468 -84.1491 191° South 428 493 37,100 506 Climbing FlightAware ADS-B (KDZJ)
09:01PM 34.7698 -84.1674 191° South 423 487 37,700 655 Climbing FlightAware ADS-B (KDZJ)
09:03PM 34.5159 -84.2278 191° South 413 475 39,000 446 Climbing FlightAware ADS-B (KDZJ)
09:04PM 34.4398 -84.2457 191° South 410 472 39,000  Level FlightAware ADS-B (KDZJ)
09:05PM 34.3620 -84.2640 191° South 412 474 39,000  Level FlightAware ADS-B (KDZJ)
09:06PM 34.2874 -84.2815 191° South 412 474 39,000  Level FlightAware ADS-B (KDZJ)
09:06PM 34.2137 -84.2987 191° South 413 475 39,000  Level FlightAware ADS-B (KDZJ)
09:07PM 34.1370 -84.3165 191° South 413 475 39,000  Level FlightAware ADS-B (KDZJ)
09:07PM 34.0624 -84.3338 191° South 408 470 39,000  Level FlightAware ADS-B (KDZJ)
09:08PM 33.9856 -84.3519 191° South 409 471 39,000  Level FlightAware ADS-B (KDZJ)
09:09PM 33.9139 -84.3688 191° South 410 472 39,000  Level FlightAware ADS-B (KDZJ)
09:10PM 33.8022 -84.3964 191° South 428 493 39,000  Level Atlanta Center
09:11PM 33.6933 -84.4208 191° South 428 493 39,000  Level Atlanta Center
09:12PM 33.5850 -84.4353 186° South 429 494 39,000  Level Atlanta Center
09:13PM 33.4681 -84.4322 179° South 429 494 39,000  Level Atlanta Center
09:14PM 33.3492 -84.4317 180° South 422 486 39,000  Level Atlanta Center
09:15PM 33.2322 -84.4311 180° South 422 486 39,000  Level Atlanta Center
09:16PM 33.1111 -84.4258 178° South 422 486 39,000 50 Level Atlanta Center
09:17PM 32.9900 -84.4253 180° South 428 493 39,100 50 Climbing Atlanta Center
09:18PM 32.8711 -84.4197 178° South 428 493 39,100 -50 Level Atlanta Center
09:19PM 32.7542 -84.3994 172° South 433 498 39,000 -50 Descending Atlanta Center
09:20PM 32.6353 -84.3792 172° South 433 498 39,000  Level Atlanta Center
09:21PM 32.5164 -84.3592 172° South 433 498 39,000  Level Atlanta Center
09:22PM 32.3953 -84.3389 172° South 433 498 39,000  Level Atlanta Center
09:23PM 32.2764 -84.3164 171° South 433 498 39,000  Level Atlanta Center
09:24PM 32.1575 -84.2964 172° South 438 504 39,000  Level Atlanta Center
09:25PM 31.9817 -84.2642 171° South 437 503 39,000  Level Jacksonville Center
09:26PM 31.8733 -84.2456 172° South 437 503 39,000  Level Jacksonville Center
09:32PM 31.2051 -84.2788 187° South 432 497 39,000 15 Level FlightAware ADS-B
09:33PM 31.0381 -84.3033 187° South 434 499 39,100  Climbing FlightAware ADS-B
09:34PM 30.9564 -84.3152 187° South 434 499 39,000 -81 Descending FlightAware ADS-B
09:34PM 30.8904 -84.3249 187° South 434 499 39,000  Level FlightAware ADS-B
09:35PM 30.8321 -84.3334 187° South 431 496 39,000  Level FlightAware ADS-B
09:35PM 30.7722 -84.3421 187° South 430 495 39,000  Level FlightAware ADS-B
09:36PM 30.7034 -84.3514 182° South 431 496 39,000  Level FlightAware ADS-B
09:37PM 30.6165 -84.3453 170° South 433 498 39,000  Level FlightAware ADS-B
09:37PM 30.5535 -84.3326 170° South 433 498 39,000  Level FlightAware ADS-B
09:38PM 30.4940 -84.3208 170° South 432 497 39,000  Level FlightAware ADS-B
09:38PM 30.4155 -84.3056 171° South 431 496 39,000  Level FlightAware ADS-B
09:39PM 30.3411 -84.2888 161° South 434 499 39,000  Level FlightAware ADS-B
09:39PM 30.3015 -84.2672 148° Southeast 437 503 39,000  Level FlightAware ADS-B
09:40PM 30.2837 -84.2522 134° Southeast 441 507 39,000  Level FlightAware ADS-B
09:40PM 30.2445 -84.1997 121° Southeast 445 512 39,000  Level FlightAware ADS-B
09:40PM 30.2271 -84.1556 109° East 448 516 39,000 -450 Level FlightAware ADS-B
09:41PM 30.2194 -84.1169 96° East 451 519 38,700 -1,200 Descending FlightAware ADS-B
09:41PM 30.2139 -84.0381 94° East 443 510 38,000 -1,375 Descending FlightAware ADS-B
09:41PM 30.2161 -83.9944 81° East 447 514 37,600 -1,469 Descending FlightAware ADS-B
09:42PM 30.2313 -83.9284 70° East 453 521 36,800 -1,452 Descending FlightAware ADS-B
09:42PM 30.2598 -83.8544 65° Northeast 459 528 36,100 -1,475 Descending FlightAware ADS-B
09:43PM 30.2871 -83.7874 65° Northeast 464 534 35,300 -1,500 Descending FlightAware ADS-B
09:44PM 30.3172 -83.7127 65° Northeast 468 539 34,500 -1,443 Descending FlightAware ADS-B
09:44PM 30.3587 -83.6087 66° East 470 541 33,400 -1,516 Descending FlightAware ADS-B
09:45PM 30.3997 -83.5011 67° East 473 544 32,200 -1,488 Descending FlightAware ADS-B
09:46PM 30.4495 -83.3008 86° East 473 544 30,200 -741 Descending FlightAware ADS-B
09:52PM 30.2738 -82.6168 162° South 418 481 27,000 -456 Descending FlightAware ADS-B
09:53PM 30.1219 -82.5589 162° South 415 478 27,000  Level FlightAware ADS-B
09:56PM 29.8654 -82.4624 162° South 420 483 27,000  Level FlightAware ADS-B
09:56PM 29.7891 -82.4339 162° South 419 482 27,000 -304 Level FlightAware ADS-B
09:58PM 29.5740 -82.3566 172° South 412 474 26,200 -568 Descending FlightAware ADS-B
09:59PM 29.5080 -82.3487 174° South 413 475 25,400 -1,357 Descending FlightAware ADS-B
10:00PM 29.4132 -82.3375 174° South 413 475 24,300 -2,235 Descending FlightAware ADS-B
10:01PM 29.2800 -82.3216 174° South 402 463 21,600 -2,045 Descending FlightAware ADS-B
10:03PM 29.0164 -82.2902 174° South 372 428 16,800 -1,449 Descending FlightAware ADS-B
10:08PM 28.5894 -82.2434 175° South 340 391 11,700 -1,129 Descending FlightAware ADS-B
10:08PM 28.5204 -82.2371 176° South 337 388 11,100 -568 Descending FlightAware ADS-B
10:09PM 28.4701 -82.2325 175° South 338 389 11,000 -120 Descending FlightAware ADS-B
10:09PM 28.4427 -82.2332 187° South 336 387 11,000 -59 Level FlightAware ADS-B
10:11PM 28.3160 -82.2561 190° South 328 377 10,900 -893 Descending FlightAware ADS-B
10:16PM 27.8927 -82.3518 216° Southwest 261 300 4,900 -1,036 Descending FlightAware ADS-B
10:17PM 27.8519 -82.4133 216° Southwest 247 284 4,100 -884 Descending Miami Center
10:18PM 27.8200 -82.4747 240° Southwest 231 266 3,000 -590 Descending Miami Center
10:19PM 27.8111 -82.5394 261° West 214 246 2,900 -550 Descending Miami Center
10:20PM 27.8147 -82.5944 274° West 184 212 1,900 -683 Descending Miami Center
10:21PM 27.8167 -82.6500 272° West 153 176 1,500 -512 Descending Tampa TRACON
10:22PM 27.8500 -82.6833 319° Northwest 128 147 800 -619 Descending Tampa TRACON
10:23PM 27.8833 -82.6833 360° North 134 154 200 -600 Descending Tampa TRACON
10:25PM 27.9000 -82.6833 310° West  Level FlightAware Approximate